Accueil
METAR-TAF:

METAR-TAF

Aéroports :

Rørvik, Norvège

latitude: 64-50N, longitude: 011-09E, altitude: 4 m

Observation

Le bulletin a été fait il y a 12 heures et 26 minutes, à 07:50 UTC
Vent 15 kt de sud/sud-ouest
Température 12°C
Humidité 82%
Pression 1008 hPa
Visibilité 10 km ou plus
Quelques nuages à une hauteur de 2000 ft, Cumulus congestus.
Nuages épars à une hauteur de 2800 ft
Nuages fragmentés à une hauteur de 4200 ft

METAR: ENRM 110750Z 21015KT 9999 FEW020TCU SCT028 BKN042 12/09 Q1008

Heure: 22:16 (20:16 UTC)

Prévision

Le bulletin a été fait il y a 30 heures et 16 minutes, à 14:00 UTC
Prévision valable du 10 à 15 UTC au 10 à 21 UTC
Vent 10 kt de sud-ouest
Visibilité 10 km ou plus
Quelques nuages à une hauteur de 2000 ft, Cumulus congestus.
Nuages épars à une hauteur de 5000 ft
faibles averses de pluie

TAF: ENRM 101400Z 1015/1021 23010KT 9999 -SHRA FEW020TCU SCT050

Observations et prévisions météorologiques de plus de 4000 aéroports (messages METAR et TAF).

Les stations disponibles sont représentées par des disques jaunes et rouges sur la carte.

Passer la souris dessus pour voir le nom de la station.

Cliquer dessus pour voir les observations et prévisions météorologiques.

Pour changer de carte: cliquez sur les boutons verts avec une croix noire pour zoomer, sur le bouton vert avec un tiret pour effectuer un zoom arrière, ou sur les flèches vertes pour les cartes adjacentes.


METAR-TAF: